Time;durP1;ratioP1;P1;durP2;ratioP2;P2;SDS_P1;SDS_P2;PMS_P1;PMS_P2;Temp;Humidity;BMP_temperature;BMP_pressure;BME280_temperature;BME280_humidity;BME280_pressure;Samples;Min_cycle;Max_cycle;Signal;HPM_P1;HPM_P2
2021/06/26 00:01:02;;;;;;;;;;;15.50;78.20;;;;;;5018258;27;96467;-47
2021/06/26 00:03:31;;;;;;;;;;;15.50;78.20;;;;;;5031944;28;95578;-46
2021/06/26 00:06:00;;;;;;;;;;;15.50;78.30;;;;;;5010360;28;95632;-46
2021/06/26 00:08:30;;;;;;;;;;;15.50;78.20;;;;;;5030052;28;95712;-45
2021/06/26 00:11:00;;;;;;;;;;;15.50;78.20;;;;;;5006298;27;96863;-45
2021/06/26 00:13:31;;;;;;;;;;;15.50;78.20;;;;;;5012956;28;96026;-45
2021/06/26 00:16:02;;;;;;;;;;;15.50;78.20;;;;;;5023572;28;96017;-45
2021/06/26 00:18:33;;;;;;;;;;;15.50;78.40;;;;;;5031600;28;95703;-45
2021/06/26 00:21:04;;;;;;;;;;;15.60;80.10;;;;;;5030875;28;96159;-45
2021/06/26 00:23:34;;;;;;;;;;;15.80;78.40;;;;;;5026348;28;95769;-45
2021/06/26 00:26:18;;;;;;;;;;;15.80;77.90;;;;;;5029311;28;96056;-45
2021/06/26 00:28:48;;;;;;;;;;;15.90;77.90;;;;;;5027502;28;95893;-45
2021/06/26 00:31:19;;;;;;;;;;;15.90;77.90;;;;;;5025809;27;96453;-45
2021/06/26 00:33:50;;;;;;;;;;;15.90;77.70;;;;;;5028684;27;95902;-46
2021/06/26 00:36:21;;;;;;;;;;;15.90;77.70;;;;;;5022024;27;95984;-45
2021/06/26 00:38:52;;;;;;;;;;;15.90;77.70;;;;;;5020247;27;95690;-45
2021/06/26 00:41:23;;;;;;;;;;;15.80;77.60;;;;;;5025342;28;95845;-45
2021/06/26 00:43:54;;;;;;;;;;;15.90;77.70;;;;;;5018511;28;95264;-46
2021/06/26 00:46:24;;;;;;;;;;;15.90;77.60;;;;;;5017787;28;95971;-45
2021/06/26 00:48:55;;;;;;;;;;;15.80;77.60;;;;;;5015652;28;95977;-47
2021/06/26 00:51:26;;;;;;;;;;;15.80;78.20;;;;;;5020819;28;97310;-46
2021/06/26 00:53:55;;;;;;;;;;;15.80;77.50;;;;;;5018878;28;95386;-45
2021/06/26 00:56:25;;;;;;;;;;;15.80;77.50;;;;;;5026007;28;96493;-45
2021/06/26 00:59:11;;;;;;;;;;;15.80;77.50;;;;;;5026910;28;95908;-46
2021/06/26 01:01:40;;;;;;;;;;;15.80;77.80;;;;;;5004616;28;96547;-47
2021/06/26 01:04:10;;;;;;;;;;;15.80;78.00;;;;;;5006475;28;96236;-46
2021/06/26 01:06:41;;;;;;;;;;;15.80;78.10;;;;;;5030862;28;96122;-45
2021/06/26 01:09:10;;;;;;;;;;;15.80;78.00;;;;;;5023080;28;95763;-46
2021/06/26 01:11:39;;;;;;;;;;;15.80;78.40;;;;;;5029024;28;96289;-45
2021/06/26 01:14:09;;;;;;;;;;;15.80;78.30;;;;;;5022098;27;96005;-45
2021/06/26 01:16:41;;;;;;;;;;;15.70;77.90;;;;;;5021290;27;96161;-45
2021/06/26 01:19:12;;;;;;;;;;;15.80;78.00;;;;;;5017822;27;95839;-45
2021/06/26 01:21:44;;;;;;;;;;;15.70;77.90;;;;;;5024159;28;95783;-45
2021/06/26 01:24:15;;;;;;;;;;;15.70;77.90;;;;;;5017781;28;96051;-45
2021/06/26 01:26:46;;;;;;;;;;;15.70;77.90;;;;;;4977626;27;97142;-44
2021/06/26 01:29:16;;;;;;;;;;;15.70;78.20;;;;;;5016205;27;96063;-47
2021/06/26 01:31:47;;;;;;;;;;;15.80;78.30;;;;;;5014233;27;96805;-46
2021/06/26 01:34:17;;;;;;;;;;;15.80;78.30;;;;;;5017330;27;96358;-46
2021/06/26 01:36:48;;;;;;;;;;;15.90;78.30;;;;;;5022638;27;95732;-46
2021/06/26 01:39:19;;;;;;;;;;;15.90;78.40;;;;;;5019444;28;95883;-46
2021/06/26 01:41:49;;;;;;;;;;;16.00;78.30;;;;;;5014879;28;97173;-46
2021/06/26 01:44:20;;;;;;;;;;;16.10;78.00;;;;;;5021187;28;95979;-46
2021/06/26 01:46:51;;;;;;;;;;;16.10;77.90;;;;;;5015236;28;96651;-46
2021/06/26 01:49:22;;;;;;;;;;;16.20;77.80;;;;;;5023081;28;96042;-57
2021/06/26 01:51:53;;;;;;;;;;;16.30;77.70;;;;;;5017552;27;97479;-45
2021/06/26 01:54:26;;;;;;;;;;;16.30;77.50;;;;;;5022062;28;96037;-60
2021/06/26 01:56:57;;;;;;;;;;;16.30;77.20;;;;;;5019547;28;95924;-58
2021/06/26 01:59:27;;;;;;;;;;;16.40;77.20;;;;;;5024433;28;96095;-59
2021/06/26 02:01:57;;;;;;;;;;;16.50;77.10;;;;;;5014710;27;96275;-58
2021/06/26 02:04:27;;;;;;;;;;;16.50;77.00;;;;;;5020742;27;97826;-58
2021/06/26 02:06:57;;;;;;;;;;;16.50;76.80;;;;;;5020650;28;98365;-60
2021/06/26 02:09:27;;;;;;;;;;;16.60;76.80;;;;;;5024119;28;96032;-59
2021/06/26 02:11:57;;;;;;;;;;;16.60;76.70;;;;;;5021007;27;96000;-59
2021/06/26 02:14:28;;;;;;;;;;;16.60;76.40;;;;;;5022509;28;96401;-56
2021/06/26 02:17:00;;;;;;;;;;;16.70;76.60;;;;;;5014538;28;95886;-59
2021/06/26 02:19:32;;;;;;;;;;;16.70;76.40;;;;;;5023718;28;95276;-48
2021/06/26 02:22:04;;;;;;;;;;;16.70;76.30;;;;;;5019018;28;96027;-58
2021/06/26 02:24:35;;;;;;;;;;;16.70;75.80;;;;;;5004096;28;97184;-47
2021/06/26 02:27:07;;;;;;;;;;;16.70;75.50;;;;;;5018865;27;95710;-58
2021/06/26 02:29:38;;;;;;;;;;;16.70;75.80;;;;;;5023543;28;96099;-60
2021/06/26 02:32:08;;;;;;;;;;;16.70;75.70;;;;;;5014705;27;96541;-59
2021/06/26 02:34:38;;;;;;;;;;;16.70;75.80;;;;;;5013194;27;95869;-50
2021/06/26 02:37:10;;;;;;;;;;;16.70;75.80;;;;;;5016065;27;95808;-59
2021/06/26 02:39:40;;;;;;;;;;;16.70;75.90;;;;;;5023188;28;96019;-50
2021/06/26 02:42:11;;;;;;;;;;;16.70;75.80;;;;;;5000283;28;95888;-59
2021/06/26 02:44:42;;;;;;;;;;;16.70;76.00;;;;;;5022432;28;95448;-50
2021/06/26 02:47:13;;;;;;;;;;;16.70;76.00;;;;;;5014492;27;95806;-59
2021/06/26 02:49:44;;;;;;;;;;;16.70;76.20;;;;;;5023515;28;95260;-48
2021/06/26 02:52:15;;;;;;;;;;;16.60;76.20;;;;;;5019349;28;96422;-48
2021/06/26 02:54:46;;;;;;;;;;;16.60;76.20;;;;;;5020147;28;96141;-50
2021/06/26 02:57:16;;;;;;;;;;;16.60;76.30;;;;;;5017420;28;96020;-50
2021/06/26 02:59:48;;;;;;;;;;;16.60;76.40;;;;;;5020837;28;95854;-59
2021/06/26 03:02:18;;;;;;;;;;;16.60;76.30;;;;;;5017448;28;95879;-48
2021/06/26 03:04:47;;;;;;;;;;;16.60;76.40;;;;;;5001950;28;95939;-59
2021/06/26 03:07:16;;;;;;;;;;;16.60;76.40;;;;;;5022133;28;96192;-47
2021/06/26 03:09:47;;;;;;;;;;;16.70;76.40;;;;;;5000628;27;96186;-49
2021/06/26 03:12:17;;;;;;;;;;;16.60;76.20;;;;;;5019059;28;95916;-48
2021/06/26 03:14:47;;;;;;;;;;;16.70;76.20;;;;;;5017746;28;95866;-59
2021/06/26 03:17:18;;;;;;;;;;;16.80;76.20;;;;;;5019059;27;95905;-48
2021/06/26 03:19:50;;;;;;;;;;;16.70;76.10;;;;;;5021683;28;95966;-59
2021/06/26 03:22:20;;;;;;;;;;;16.80;76.10;;;;;;5006564;28;96211;-48
2021/06/26 03:24:52;;;;;;;;;;;16.80;76.10;;;;;;5021774;28;95917;-49
2021/06/26 03:27:22;;;;;;;;;;;16.80;76.10;;;;;;5015293;27;95972;-48
2021/06/26 03:29:52;;;;;;;;;;;16.80;76.10;;;;;;5019065;27;96014;-58
2021/06/26 03:32:22;;;;;;;;;;;16.80;76.00;;;;;;5018257;27;96776;-50
2021/06/26 03:34:52;;;;;;;;;;;16.80;76.00;;;;;;5015461;27;95908;-49
2021/06/26 03:37:23;;;;;;;;;;;16.90;76.10;;;;;;5035947;27;96098;-52
2021/06/26 03:39:53;;;;;;;;;;;16.90;76.00;;;;;;5022224;27;95520;-48
2021/06/26 03:42:23;;;;;;;;;;;16.90;76.00;;;;;;5022408;28;97153;-59
2021/06/26 03:44:53;;;;;;;;;;;16.90;76.00;;;;;;4998345;28;97214;-49
2021/06/26 03:47:25;;;;;;;;;;;16.90;76.00;;;;;;5001396;28;96427;-48
2021/06/26 03:49:56;;;;;;;;;;;16.90;76.00;;;;;;5000545;28;96246;-49
2021/06/26 03:52:27;;;;;;;;;;;16.90;75.90;;;;;;4988893;28;98346;-50
2021/06/26 03:54:56;;;;;;;;;;;16.90;75.90;;;;;;5020877;28;97408;-49
2021/06/26 03:57:26;;;;;;;;;;;16.90;75.90;;;;;;5024064;28;95766;-51
2021/06/26 03:59:55;;;;;;;;;;;16.90;75.80;;;;;;5020073;28;95674;-48
2021/06/26 04:02:24;;;;;;;;;;;16.90;75.80;;;;;;5017804;28;95941;-48
2021/06/26 04:04:54;;;;;;;;;;;16.90;75.80;;;;;;5020502;28;95943;-48
2021/06/26 04:07:25;;;;;;;;;;;16.90;75.80;;;;;;5023898;28;96170;-48
2021/06/26 04:09:54;;;;;;;;;;;17.00;75.80;;;;;;5025884;28;95647;-52
2021/06/26 04:12:24;;;;;;;;;;;17.10;75.30;;;;;;5020812;28;95838;-48
2021/06/26 04:14:53;;;;;;;;;;;17.10;75.10;;;;;;5021918;27;96123;-49
2021/06/26 04:17:23;;;;;;;;;;;17.10;74.90;;;;;;5016819;28;95955;-48
2021/06/26 04:19:55;;;;;;;;;;;17.20;74.80;;;;;;5025282;28;98546;-50
2021/06/26 04:22:26;;;;;;;;;;;17.20;74.60;;;;;;5021232;28;96231;-49
2021/06/26 04:24:56;;;;;;;;;;;17.20;74.50;;;;;;5022796;28;96221;-49
2021/06/26 04:27:27;;;;;;;;;;;17.20;74.40;;;;;;5033718;27;95811;-49
2021/06/26 04:29:58;;;;;;;;;;;17.20;74.40;;;;;;5024416;28;98230;-49
2021/06/26 04:32:29;;;;;;;;;;;17.30;74.40;;;;;;4996361;27;98032;-49
2021/06/26 04:34:59;;;;;;;;;;;17.30;74.20;;;;;;5014484;27;95933;-50
2021/06/26 04:37:29;;;;;;;;;;;17.40;74.10;;;;;;5019914;27;95979;-48
2021/06/26 04:40:00;;;;;;;;;;;17.50;73.80;;;;;;5024609;28;96033;-48
2021/06/26 04:42:30;;;;;;;;;;;17.60;73.50;;;;;;5020472;27;96521;-48
2021/06/26 04:45:00;;;;;;;;;;;17.60;73.20;;;;;;5023643;28;96484;-47
2021/06/26 04:47:30;;;;;;;;;;;17.70;73.00;;;;;;5034438;27;95721;-47
2021/06/26 04:50:02;;;;;;;;;;;17.70;73.00;;;;;;5024950;28;95810;-48
2021/06/26 04:52:33;;;;;;;;;;;17.80;72.70;;;;;;5019477;27;96043;-50
2021/06/26 04:55:03;;;;;;;;;;;17.80;72.50;;;;;;5024230;28;96051;-48
2021/06/26 04:57:34;;;;;;;;;;;17.80;72.50;;;;;;5021519;28;96860;-49
2021/06/26 05:00:05;;;;;;;;;;;17.80;72.40;;;;;;5024136;28;96797;-47
2021/06/26 05:02:38;;;;;;;;;;;17.80;72.40;;;;;;5013153;27;96149;-47
2021/06/26 05:05:08;;;;;;;;;;;17.80;72.30;;;;;;5019305;28;98932;-47
2021/06/26 05:07:37;;;;;;;;;;;17.80;72.20;;;;;;5017852;27;96557;-48
2021/06/26 05:10:07;;;;;;;;;;;17.80;72.20;;;;;;5004358;28;96081;-47
2021/06/26 05:12:36;;;;;;;;;;;17.90;72.20;;;;;;5019541;28;96792;-50
2021/06/26 05:15:06;;;;;;;;;;;17.90;72.00;;;;;;5019157;28;95702;-50
2021/06/26 05:17:39;;;;;;;;;;;17.90;72.00;;;;;;5021630;28;96688;-47
2021/06/26 05:20:16;;;;;;;;;;;17.90;71.80;;;;;;5024154;28;95246;-50
2021/06/26 05:22:48;;;;;;;;;;;17.90;71.90;;;;;;5023465;28;96060;-48
2021/06/26 05:25:19;;;;;;;;;;;18.00;71.80;;;;;;5020735;28;95376;-47
2021/06/26 05:27:51;;;;;;;;;;;18.00;71.80;;;;;;5023435;28;97328;-49
2021/06/26 05:30:23;;;;;;;;;;;18.00;71.70;;;;;;5017447;28;95778;-49
2021/06/26 05:32:53;;;;;;;;;;;18.00;71.70;;;;;;5021340;27;95989;-48
2021/06/26 05:35:23;;;;;;;;;;;18.00;71.70;;;;;;4995828;27;96039;-49
2021/06/26 05:37:53;;;;;;;;;;;18.00;71.60;;;;;;5005697;28;96535;-47
2021/06/26 05:40:23;;;;;;;;;;;18.00;71.60;;;;;;5020365;27;100341;-49
2021/06/26 05:42:53;;;;;;;;;;;18.00;71.50;;;;;;5022939;28;96048;-48
2021/06/26 05:45:23;;;;;;;;;;;18.00;71.50;;;;;;5015696;28;95914;-47
2021/06/26 05:47:54;;;;;;;;;;;18.00;71.50;;;;;;5021777;28;95977;-49
2021/06/26 05:50:25;;;;;;;;;;;18.00;71.40;;;;;;5020781;28;96543;-48
2021/06/26 05:52:56;;;;;;;;;;;18.00;71.40;;;;;;5024601;28;95843;-49
2021/06/26 05:55:27;;;;;;;;;;;18.10;71.40;;;;;;5019842;28;96445;-48
2021/06/26 05:57:58;;;;;;;;;;;18.10;71.40;;;;;;5020517;28;95899;-49
2021/06/26 06:00:32;;;;;;;;;;;18.10;71.40;;;;;;5015339;28;96059;-59
2021/06/26 06:03:02;;;;;;;;;;;18.10;71.20;;;;;;5024257;27;95796;-48
2021/06/26 06:05:32;;;;;;;;;;;18.20;71.20;;;;;;5020701;28;96223;-48
2021/06/26 06:08:01;;;;;;;;;;;18.20;71.40;;;;;;5003232;28;95870;-47
2021/06/26 06:10:31;;;;;;;;;;;18.30;71.50;;;;;;5020862;28;95962;-49
2021/06/26 06:13:00;;;;;;;;;;;18.30;71.50;;;;;;5022724;28;96412;-51
2021/06/26 06:15:33;;;;;;;;;;;18.30;71.30;;;;;;5014831;28;96091;-50
2021/06/26 06:18:06;;;;;;;;;;;18.30;71.20;;;;;;5024414;28;96010;-48
2021/06/26 06:20:38;;;;;;;;;;;18.10;71.40;;;;;;5021981;28;96170;-50
2021/06/26 06:23:10;;;;;;;;;;;18.00;71.70;;;;;;5023118;28;97109;-50
2021/06/26 06:25:42;;;;;;;;;;;18.00;71.90;;;;;;5016926;28;96517;-50
2021/06/26 06:28:14;;;;;;;;;;;17.80;72.00;;;;;;5022892;28;96478;-48
2021/06/26 06:30:47;;;;;;;;;;;17.80;72.10;;;;;;5013739;27;96802;-49
2021/06/26 06:33:21;;;;;;;;;;;17.80;72.20;;;;;;5019092;27;96157;-48
2021/06/26 06:35:51;;;;;;;;;;;17.70;72.10;;;;;;5012472;27;101245;-50
2021/06/26 06:38:22;;;;;;;;;;;17.70;72.30;;;;;;5021771;28;96020;-48
2021/06/26 06:40:51;;;;;;;;;;;17.70;72.30;;;;;;5022441;28;95816;-52
2021/06/26 06:43:20;;;;;;;;;;;17.60;72.30;;;;;;5003389;28;95790;-49
2021/06/26 06:45:51;;;;;;;;;;;17.60;72.30;;;;;;5021788;28;95762;-49
2021/06/26 06:48:21;;;;;;;;;;;17.50;72.30;;;;;;5019307;27;102657;-48
2021/06/26 06:50:53;;;;;;;;;;;17.50;72.40;;;;;;5021885;28;96524;-53
2021/06/26 06:53:23;;;;;;;;;;;17.40;72.60;;;;;;5018222;27;96644;-59
2021/06/26 06:55:57;;;;;;;;;;;17.40;72.50;;;;;;5020692;28;95980;-58
2021/06/26 06:58:28;;;;;;;;;;;17.40;72.60;;;;;;5017388;27;97154;-57
2021/06/26 07:00:57;;;;;;;;;;;17.30;72.60;;;;;;5016946;27;96719;-56
2021/06/26 07:03:26;;;;;;;;;;;17.30;72.70;;;;;;5017892;28;95801;-59
2021/06/26 07:05:56;;;;;;;;;;;17.30;72.70;;;;;;5019729;28;96017;-59
2021/06/26 07:08:27;;;;;;;;;;;17.20;72.70;;;;;;5017414;27;96145;-57
2021/06/26 07:10:56;;;;;;;;;;;17.10;72.70;;;;;;5022873;28;95900;-48
2021/06/26 07:13:25;;;;;;;;;;;17.10;72.90;;;;;;5001192;28;96026;-47
2021/06/26 07:15:56;;;;;;;;;;;17.20;72.70;;;;;;5014485;28;95854;-47
2021/06/26 07:18:28;;;;;;;;;;;17.30;72.40;;;;;;5015927;28;96094;-50
2021/06/26 07:21:00;;;;;;;;;;;17.30;72.10;;;;;;5021177;28;95407;-48
2021/06/26 07:23:32;;;;;;;;;;;17.40;71.90;;;;;;5032398;27;96070;-48
2021/06/26 07:26:03;;;;;;;;;;;17.40;71.80;;;;;;5022433;28;95677;-47
2021/06/26 07:28:34;;;;;;;;;;;17.40;71.60;;;;;;5017494;28;96064;-48
2021/06/26 07:31:05;;;;;;;;;;;17.40;71.60;;;;;;4983943;28;95885;-47
2021/06/26 07:33:35;;;;;;;;;;;17.40;71.40;;;;;;5016344;27;96695;-47
2021/06/26 07:36:06;;;;;;;;;;;17.40;71.40;;;;;;5015973;27;96337;-50
2021/06/26 07:38:37;;;;;;;;;;;17.40;71.30;;;;;;5018521;27;95939;-49
2021/06/26 07:41:06;;;;;;;;;;;17.40;71.30;;;;;;5021297;28;96416;-49
2021/06/26 07:43:37;;;;;;;;;;;17.40;71.20;;;;;;5016503;28;96081;-47
2021/06/26 07:46:08;;;;;;;;;;;17.40;71.30;;;;;;5014871;28;95952;-48
2021/06/26 07:48:38;;;;;;;;;;;17.40;71.20;;;;;;5018411;28;95717;-51
2021/06/26 07:51:09;;;;;;;;;;;17.40;71.10;;;;;;5021473;28;95862;-49
2021/06/26 07:53:43;;;;;;;;;;;17.40;71.00;;;;;;5017769;28;95879;-49
2021/06/26 07:56:14;;;;;;;;;;;17.30;71.00;;;;;;5022131;28;96480;-51
2021/06/26 07:58:45;;;;;;;;;;;17.30;70.90;;;;;;5022690;27;95743;-50
2021/06/26 08:01:16;;;;;;;;;;;17.30;70.80;;;;;;5016024;27;95630;-49
2021/06/26 08:03:46;;;;;;;;;;;17.30;71.10;;;;;;5023079;28;95738;-48
2021/06/26 08:06:16;;;;;;;;;;;17.30;71.10;;;;;;5022441;27;97884;-48
2021/06/26 08:08:46;;;;;;;;;;;17.30;71.10;;;;;;5023945;28;95912;-50
2021/06/26 08:11:15;;;;;;;;;;;17.20;71.00;;;;;;5022193;28;96105;-48
2021/06/26 08:13:45;;;;;;;;;;;17.30;71.10;;;;;;5005585;28;98378;-57
2021/06/26 08:16:15;;;;;;;;;;;17.30;71.10;;;;;;5016677;28;95444;-47
2021/06/26 08:18:46;;;;;;;;;;;17.20;71.10;;;;;;5023813;28;96516;-47
2021/06/26 08:21:20;;;;;;;;;;;17.30;71.10;;;;;;5021110;28;96323;-46
2021/06/26 08:23:52;;;;;;;;;;;17.20;71.00;;;;;;5023652;28;96386;-47
2021/06/26 08:26:23;;;;;;;;;;;17.20;71.00;;;;;;5016421;28;96357;-48
2021/06/26 08:28:54;;;;;;;;;;;17.20;71.00;;;;;;5024377;28;96671;-47
2021/06/26 08:31:24;;;;;;;;;;;17.20;70.90;;;;;;5016748;28;96036;-48
2021/06/26 08:33:55;;;;;;;;;;;17.20;70.90;;;;;;5018533;27;97032;-57
2021/06/26 08:36:25;;;;;;;;;;;17.20;70.90;;;;;;5018550;27;95451;-59
2021/06/26 08:38:59;;;;;;;;;;;17.20;70.90;;;;;;5025659;28;96543;-47
2021/06/26 08:41:29;;;;;;;;;;;17.20;70.90;;;;;;5020400;28;96062;-48
2021/06/26 08:44:01;;;;;;;;;;;17.10;70.80;;;;;;5022285;28;95804;-47
2021/06/26 08:46:33;;;;;;;;;;;17.10;70.80;;;;;;5013532;28;95937;-58
2021/06/26 08:49:04;;;;;;;;;;;17.20;71.50;;;;;;5023823;28;96228;-47
2021/06/26 08:51:35;;;;;;;;;;;17.10;70.80;;;;;;5021125;27;95831;-57
2021/06/26 08:54:04;;;;;;;;;;;17.10;70.80;;;;;;5021525;28;97572;-47
2021/06/26 08:56:33;;;;;;;;;;;17.10;70.80;;;;;;5018012;28;96453;-47
2021/06/26 08:59:05;;;;;;;;;;;17.10;70.80;;;;;;5022396;28;96038;-46
2021/06/26 09:01:35;;;;;;;;;;;17.10;70.80;;;;;;5016521;28;96070;-47
2021/06/26 09:04:06;;;;;;;;;;;17.10;70.80;;;;;;5028882;28;96024;-48
2021/06/26 09:06:53;;;;;;;;;;;17.00;71.00;;;;;;5027683;28;95266;-46
2021/06/26 09:09:35;;;;;;;;;;;16.90;71.30;;;;;;5011565;28;95847;-47
2021/06/26 09:12:06;;;;;;;;;;;16.80;71.60;;;;;;5021482;27;96025;-47
2021/06/26 09:14:38;;;;;;;;;;;16.80;71.80;;;;;;5025553;27;95833;-48
2021/06/26 09:17:09;;;;;;;;;;;16.70;71.90;;;;;;5016546;27;95430;-48
2021/06/26 09:19:39;;;;;;;;;;;16.70;72.00;;;;;;5018025;27;95932;-47
2021/06/26 09:22:11;;;;;;;;;;;16.60;71.90;;;;;;5007842;28;96266;-48
2021/06/26 09:24:45;;;;;;;;;;;16.60;72.00;;;;;;5026933;28;96357;-47
2021/06/26 09:27:16;;;;;;;;;;;16.60;72.10;;;;;;5028280;28;95746;-46
2021/06/26 09:29:48;;;;;;;;;;;16.60;72.10;;;;;;5010401;28;95856;-46
2021/06/26 09:32:24;;;;;;;;;;;16.60;72.10;;;;;;5025121;28;95902;-46
2021/06/26 09:34:55;;;;;;;;;;;16.60;72.20;;;;;;5020263;27;96011;-47
2021/06/26 09:37:28;;;;;;;;;;;16.50;72.70;;;;;;5026029;27;96221;-47
2021/06/26 09:40:01;;;;;;;;;;;16.50;72.20;;;;;;5024934;28;99298;-47
2021/06/26 09:42:36;;;;;;;;;;;16.50;72.10;;;;;;5027850;28;95794;-48
2021/06/26 09:45:09;;;;;;;;;;;16.50;72.80;;;;;;5021727;28;95858;-47
2021/06/26 09:47:48;;;;;;;;;;;16.40;72.20;;;;;;5025008;28;95712;-47
2021/06/26 09:50:20;;;;;;;;;;;16.50;72.10;;;;;;5024030;28;100357;-46
2021/06/26 09:52:51;;;;;;;;;;;16.40;72.30;;;;;;5026894;28;96028;-48
2021/06/26 09:55:21;;;;;;;;;;;16.40;72.30;;;;;;5005028;28;96100;-56
2021/06/26 09:57:53;;;;;;;;;;;16.40;72.30;;;;;;5027438;28;95853;-46
2021/06/26 10:00:23;;;;;;;;;;;16.40;72.30;;;;;;5020416;28;102419;-46
2021/06/26 10:02:53;;;;;;;;;;;16.40;72.20;;;;;;5029492;28;95739;-59
2021/06/26 10:05:23;;;;;;;;;;;16.40;72.10;;;;;;5024314;28;96341;-47
2021/06/26 10:07:53;;;;;;;;;;;16.40;72.20;;;;;;5025411;28;96041;-46
2021/06/26 10:10:24;;;;;;;;;;;16.30;72.20;;;;;;5022174;28;97073;-47
2021/06/26 10:12:55;;;;;;;;;;;16.30;72.30;;;;;;5025584;28;96109;-50
2021/06/26 10:15:27;;;;;;;;;;;16.30;72.50;;;;;;5024540;28;96374;-47
2021/06/26 10:17:59;;;;;;;;;;;16.30;72.40;;;;;;5027025;28;95650;-47
2021/06/26 10:20:30;;;;;;;;;;;16.30;72.40;;;;;;5024857;27;95687;-47
2021/06/26 10:23:02;;;;;;;;;;;16.30;75.90;;;;;;5025831;28;95980;-48
2021/06/26 10:25:33;;;;;;;;;;;16.50;73.20;;;;;;5020753;27;95802;-47
2021/06/26 10:28:08;;;;;;;;;;;16.50;72.90;;;;;;5022589;28;95871;-47
2021/06/26 10:30:39;;;;;;;;;;;16.40;73.10;;;;;;5018953;27;95860;-47
2021/06/26 10:33:11;;;;;;;;;;;16.40;73.30;;;;;;5025092;27;95582;-48
2021/06/26 10:35:52;;;;;;;;;;;16.40;73.40;;;;;;5018710;27;97654;-46
2021/06/26 10:38:23;;;;;;;;;;;16.30;73.20;;;;;;5023543;28;95774;-48
2021/06/26 10:40:52;;;;;;;;;;;16.30;73.30;;;;;;5021688;27;95419;-48
2021/06/26 10:43:30;;;;;;;;;;;16.30;73.30;;;;;;5027022;28;96137;-48
2021/06/26 10:46:10;;;;;;;;;;;16.30;73.20;;;;;;5019568;27;95920;-49
2021/06/26 10:48:42;;;;;;;;;;;16.20;73.10;;;;;;5029091;28;95815;-48
2021/06/26 10:51:13;;;;;;;;;;;16.20;73.00;;;;;;5025889;28;95629;-48
2021/06/26 10:53:44;;;;;;;;;;;16.20;72.90;;;;;;5028702;28;95707;-49
2021/06/26 10:56:16;;;;;;;;;;;16.20;73.10;;;;;;5025913;28;96340;-48
2021/06/26 10:58:47;;;;;;;;;;;16.10;73.00;;;;;;5024783;28;95756;-56
2021/06/26 11:01:18;;;;;;;;;;;16.10;72.90;;;;;;5019817;27;96005;-49
2021/06/26 11:04:09;;;;;;;;;;;16.10;72.90;;;;;;5027262;28;95792;-48
2021/06/26 11:06:39;;;;;;;;;;;16.10;72.90;;;;;;5020896;28;96470;-58
2021/06/26 11:09:10;;;;;;;;;;;16.10;73.00;;;;;;5028682;28;95183;-57
2021/06/26 11:11:41;;;;;;;;;;;16.10;72.80;;;;;;5026505;28;95358;-48
2021/06/26 11:14:12;;;;;;;;;;;16.00;72.80;;;;;;5028803;28;95988;-57
2021/06/26 11:16:47;;;;;;;;;;;16.00;72.80;;;;;;5015062;27;97212;-55
2021/06/26 11:19:20;;;;;;;;;;;16.00;72.80;;;;;;5024020;28;95838;-48
2021/06/26 11:21:53;;;;;;;;;;;16.00;72.70;;;;;;5021202;28;95937;-48
2021/06/26 11:24:36;;;;;;;;;;;16.00;72.80;;;;;;5028023;28;95946;-57
2021/06/26 11:27:08;;;;;;;;;;;15.90;72.70;;;;;;5004832;28;97581;-49
2021/06/26 11:29:43;;;;;;;;;;;15.90;72.80;;;;;;5005581;28;95773;-58
2021/06/26 11:32:26;;;;;;;;;;;15.90;72.70;;;;;;5011168;28;96012;-47
2021/06/26 11:35:01;;;;;;;;;;;15.90;72.70;;;;;;5019209;27;95752;-47
2021/06/26 11:37:35;;;;;;;;;;;15.90;72.70;;;;;;5005412;28;96954;-58
2021/06/26 11:40:23;;;;;;;;;;;15.90;72.80;;;;;;5025007;28;96110;-58
2021/06/26 11:42:56;;;;;;;;;;;15.80;72.80;;;;;;5022737;28;95811;-48
2021/06/26 11:45:28;;;;;;;;;;;15.80;72.80;;;;;;5021556;28;95207;-50
2021/06/26 11:48:06;;;;;;;;;;;15.80;72.90;;;;;;5023064;27;102600;-48
2021/06/26 11:50:38;;;;;;;;;;;15.80;72.80;;;;;;5025197;28;96307;-59
2021/06/26 11:53:07;;;;;;;;;;;15.80;72.80;;;;;;5018830;27;95873;-49
2021/06/26 11:55:38;;;;;;;;;;;15.80;72.80;;;;;;5024930;28;95542;-59
2021/06/26 11:58:09;;;;;;;;;;;15.80;72.80;;;;;;5039096;27;95993;-60
2021/06/26 12:00:39;;;;;;;;;;;15.70;72.90;;;;;;5019461;27;95331;-60
2021/06/26 12:03:19;;;;;;;;;;;15.70;72.80;;;;;;5029168;28;95613;-50
2021/06/26 12:05:58;;;;;;;;;;;15.70;72.80;;;;;;5027638;28;95740;-59
2021/06/26 12:08:28;;;;;;;;;;;15.70;72.90;;;;;;5026778;28;96449;-58
2021/06/26 12:10:58;;;;;;;;;;;15.70;72.80;;;;;;5017522;27;96884;-58
2021/06/26 12:13:27;;;;;;;;;;;15.60;72.80;;;;;;5018045;28;96913;-50
2021/06/26 12:15:59;;;;;;;;;;;15.70;72.80;;;;;;5012845;28;96054;-57
2021/06/26 12:18:33;;;;;;;;;;;15.60;72.90;;;;;;5029460;28;96470;-47
2021/06/26 12:21:08;;;;;;;;;;;15.60;72.80;;;;;;5010576;28;102614;-47
2021/06/26 12:23:45;;;;;;;;;;;15.60;72.80;;;;;;5029799;28;95712;-57
2021/06/26 12:26:18;;;;;;;;;;;15.60;72.80;;;;;;5025600;28;95811;-59
2021/06/26 12:28:50;;;;;;;;;;;15.60;72.90;;;;;;5011258;28;96396;-49
2021/06/26 12:31:21;;;;;;;;;;;15.50;72.90;;;;;;5022355;27;95832;-47
2021/06/26 12:34:00;;;;;;;;;;;15.50;72.80;;;;;;5025814;27;95870;-47
2021/06/26 12:36:30;;;;;;;;;;;15.50;73.00;;;;;;5026940;27;95828;-49
2021/06/26 12:39:01;;;;;;;;;;;15.50;72.90;;;;;;5027472;27;96296;-48
2021/06/26 12:41:31;;;;;;;;;;;15.50;72.90;;;;;;5026229;27;95707;-48
2021/06/26 12:44:02;;;;;;;;;;;15.50;72.90;;;;;;5026224;28;95288;-47
2021/06/26 12:46:33;;;;;;;;;;;15.50;73.00;;;;;;5020545;28;103782;-48
2021/06/26 12:49:06;;;;;;;;;;;15.50;73.00;;;;;;5009211;28;96378;-49
2021/06/26 12:51:40;;;;;;;;;;;15.50;72.90;;;;;;5026680;28;95599;-56
2021/06/26 12:54:10;;;;;;;;;;;15.50;73.70;;;;;;5030617;28;95734;-49
2021/06/26 12:56:43;;;;;;;;;;;15.50;73.10;;;;;;5026212;28;95927;-49
2021/06/26 12:59:15;;;;;;;;;;;15.40;73.10;;;;;;5022322;28;96682;-48
2021/06/26 13:01:46;;;;;;;;;;;15.40;73.00;;;;;;5018405;28;96213;-49
2021/06/26 13:04:20;;;;;;;;;;;15.40;73.10;;;;;;5026891;28;95717;-48
2021/06/26 13:07:07;;;;;;;;;;;15.40;73.00;;;;;;5023491;28;95832;-48
2021/06/26 13:09:40;;;;;;;;;;;15.40;73.00;;;;;;5023467;28;95823;-50
2021/06/26 13:12:10;;;;;;;;;;;15.40;73.00;;;;;;5025445;28;97388;-50
2021/06/26 13:14:44;;;;;;;;;;;15.40;73.10;;;;;;5028573;28;95786;-47
2021/06/26 13:17:17;;;;;;;;;;;15.40;73.20;;;;;;5019631;28;96242;-51
2021/06/26 13:19:50;;;;;;;;;;;15.40;73.10;;;;;;5026732;28;96446;-47
2021/06/26 13:22:38;;;;;;;;;;;15.40;73.10;;;;;;5019565;27;96024;-59
2021/06/26 13:25:09;;;;;;;;;;;15.30;73.20;;;;;;5023561;28;95678;-48
2021/06/26 13:27:45;;;;;;;;;;;15.30;73.10;;;;;;5022960;28;95889;-48
2021/06/26 13:30:19;;;;;;;;;;;15.30;73.10;;;;;;5006449;28;96170;-48
2021/06/26 13:32:51;;;;;;;;;;;15.30;73.10;;;;;;5034875;27;102841;-59
2021/06/26 13:35:21;;;;;;;;;;;15.30;73.10;;;;;;5025459;27;96510;-48
2021/06/26 13:37:52;;;;;;;;;;;15.30;73.10;;;;;;5024555;28;95967;-49
2021/06/26 13:40:22;;;;;;;;;;;15.30;73.20;;;;;;5027960;28;97940;-58
2021/06/26 13:43:01;;;;;;;;;;;15.30;73.20;;;;;;5023047;28;95912;-48
2021/06/26 13:45:31;;;;;;;;;;;15.30;73.40;;;;;;4988725;27;95955;-47
2021/06/26 13:48:03;;;;;;;;;;;15.30;73.70;;;;;;5002480;28;96365;-48
2021/06/26 13:50:33;;;;;;;;;;;15.30;73.60;;;;;;5020653;28;96451;-49
2021/06/26 13:53:03;;;;;;;;;;;15.30;73.50;;;;;;5001410;28;96280;-58
2021/06/26 13:55:34;;;;;;;;;;;15.40;73.90;;;;;;5015996;28;95660;-51
2021/06/26 13:58:06;;;;;;;;;;;15.50;75.20;;;;;;5019781;28;95831;-52
2021/06/26 14:00:36;;;;;;;;;;;15.50;74.90;;;;;;5018460;27;95773;-53
2021/06/26 14:03:07;;;;;;;;;;;15.50;74.90;;;;;;5020090;27;95868;-53
2021/06/26 14:05:37;;;;;;;;;;;15.50;75.00;;;;;;5024349;28;95848;-51
2021/06/26 14:08:09;;;;;;;;;;;15.50;75.00;;;;;;5005769;28;95852;-51
2021/06/26 14:10:41;;;;;;;;;;;15.50;74.80;;;;;;5021816;28;95856;-53
2021/06/26 14:13:11;;;;;;;;;;;15.50;74.90;;;;;;5024099;28;95939;-50
2021/06/26 14:15:41;;;;;;;;;;;15.50;75.00;;;;;;5001418;27;97804;-52
2021/06/26 14:18:12;;;;;;;;;;;15.50;75.00;;;;;;5016662;28;95882;-53
2021/06/26 14:20:42;;;;;;;;;;;15.50;75.00;;;;;;5006540;28;96458;-52
2021/06/26 14:23:13;;;;;;;;;;;15.50;75.00;;;;;;5023163;28;95813;-49
2021/06/26 14:25:43;;;;;;;;;;;15.40;75.00;;;;;;5008925;27;96024;-51
2021/06/26 14:28:13;;;;;;;;;;;15.50;74.90;;;;;;5020269;28;95605;-59
2021/06/26 14:30:49;;;;;;;;;;;15.50;75.00;;;;;;5018364;27;102407;-60
2021/06/26 14:33:20;;;;;;;;;;;15.50;74.90;;;;;;5019816;27;96013;-60
2021/06/26 14:35:51;;;;;;;;;;;15.50;74.90;;;;;;5015123;27;100696;-60
2021/06/26 14:38:23;;;;;;;;;;;15.50;74.90;;;;;;5021868;28;96009;-59
2021/06/26 14:40:52;;;;;;;;;;;15.40;74.80;;;;;;5018931;28;96327;-60